Weather History for Marshall, MN

Change the Weather History Date:

Saturday, February 9, 2013

  Actual Average Record
Temperature  
Mean Temperature 30 °F -  
Max Temperature 33 °F 25 °F 51 °F (1987)
Min Temperature 26 °F 5 °F -19 °F (1972)
Degree Days  
Heating Degree Days 36    
Moisture  
Dew Point 26 °F    
Average Humidity 82    
Maximum Humidity 87    
Minimum Humidity 74    
Precipitation  
Precipitation 0.00 in - - ()
Sea Level Pressure  
Sea Level Pressure 29.90 in    
Wind  
Wind Speed 18 mph (SSE)    
Max Wind Speed 25 mph    
Max Gust Speed 32 mph    
Visibility 6 miles    
Events      
Averages and records for this station are not official NWS values.
T = Trace of Precipitation, MM = Missing Value Source: NWS Daily Summary

Daily Weather History Graph

Daily Weather History Graph

Search for Another Location

Airport:

Trip Planner

Search our weather history database for the weather conditions in past years. The results will help you decide how hot, cold, wet, or windy it might be!

Date:

Astronomy

Feb. 09, 2013 Rise Set
Actual Time 7:31 AM CST 5:44 PM CST
Civil Twilight 7:01 AM CST 6:14 PM CST
Nautical Twilight 6:26 AM CST 6:48 PM CST
Astronomical Twilight 5:53 AM CST 7:22 PM CST
Moon 6:43 AM CST (2/9) 5:29 PM CST (2/9)
Length of Visible Light 11h 13m
Length of Day
10h 12m
Waning Crescent, 0% of the Moon is Illuminated
Feb 9
Waning Crescent
Feb 10
New
Feb 17
First Quarter
Feb 25
Full
Mar 4
Last Quarter

Hourly Weather History & Observations

Time (CST) Temp. Windchill Dew Point Humidity Pressure Visibility Wind Dir Wind Speed Gust Speed Precip Events Conditions
12:15 AM 26.6 °F 12.0 °F 21.2 °F 80% 30.04 in 10.0 mi South 23.0 mph 28.8 mph N/A   Overcast
12:35 AM 26.6 °F 11.4 °F 21.2 °F 80% 30.03 in 10.0 mi South 25.3 mph 32.2 mph N/A   Overcast
12:55 AM 26.6 °F 13.4 °F 21.2 °F 80% 30.03 in 10.0 mi South 18.4 mph - N/A   Overcast
1:15 AM 28.4 °F 15.8 °F 21.2 °F 74% 30.03 in 10.0 mi South 18.4 mph 26.5 mph N/A   Overcast
1:35 AM 28.4 °F 14.7 °F 23.0 °F 80% 30.01 in 10.0 mi South 21.9 mph 27.6 mph N/A   Overcast
1:55 AM 28.4 °F 15.4 °F 23.0 °F 80% 30.00 in 10.0 mi South 19.6 mph 26.5 mph N/A   Mostly Cloudy
2:15 AM 28.4 °F 14.7 °F 24.8 °F 86% 29.99 in 10.0 mi South 21.9 mph 27.6 mph N/A   Overcast
2:55 AM 28.4 °F 14.7 °F 24.8 °F 86% 29.98 in 10.0 mi South 21.9 mph 32.2 mph N/A   Overcast
3:15 AM 28.4 °F 15.8 °F 24.8 °F 86% 29.97 in 10.0 mi South 18.4 mph 26.5 mph N/A   Overcast
3:35 AM 30.2 °F 17.8 °F 23.0 °F 75% 29.97 in 10.0 mi SSE 19.6 mph 28.8 mph N/A   Overcast
3:55 AM 28.4 °F 15.8 °F 24.8 °F 86% 29.97 in 8.0 mi SSE 18.4 mph 27.6 mph N/A   Overcast
4:15 AM 28.4 °F 15.1 °F 23.0 °F 80% 29.96 in 8.0 mi SSE 20.7 mph 26.5 mph N/A   Overcast
4:35 AM 28.4 °F 15.8 °F 23.0 °F 80% 29.96 in 8.0 mi SSE 18.4 mph 26.5 mph N/A   Overcast
4:55 AM 28.4 °F 15.8 °F 24.8 °F 86% 29.96 in 7.0 mi SSE 18.4 mph - N/A   Overcast
5:15 AM 28.4 °F 15.1 °F 24.8 °F 86% 29.96 in 7.0 mi SSE 20.7 mph 29.9 mph N/A   Overcast
5:35 AM 28.4 °F 14.7 °F 24.8 °F 86% 29.95 in 7.0 mi South 21.9 mph 27.6 mph N/A   Overcast
5:55 AM 28.4 °F 15.1 °F 23.0 °F 80% 29.95 in 7.0 mi South 20.7 mph 29.9 mph N/A   Overcast
6:15 AM 28.4 °F 16.6 °F 24.8 °F 86% 29.96 in 7.0 mi South 16.1 mph 21.9 mph N/A   Overcast
6:35 AM 28.4 °F 15.8 °F 24.8 °F 86% 29.97 in 7.0 mi South 18.4 mph 26.5 mph N/A   Overcast
6:55 AM 28.4 °F 17.0 °F 24.8 °F 86% 29.98 in 7.0 mi South 15.0 mph - N/A   Overcast
7:15 AM 28.4 °F 17.0 °F 23.0 °F 80% 29.98 in 7.0 mi South 15.0 mph 23.0 mph N/A   Overcast
7:35 AM 28.4 °F 17.0 °F 23.0 °F 80% 29.98 in 5.0 mi South 15.0 mph 20.7 mph N/A   Overcast
7:55 AM 28.4 °F 17.0 °F 24.8 °F 86% 29.98 in 5.0 mi South 15.0 mph - N/A   Overcast
8:15 AM 28.4 °F 15.4 °F 23.0 °F 80% 29.98 in 5.0 mi South 19.6 mph 25.3 mph N/A   Overcast
8:35 AM 28.4 °F 14.7 °F 24.8 °F 86% 29.97 in 5.0 mi South 21.9 mph - N/A   Overcast
8:55 AM 28.4 °F 16.2 °F 24.8 °F 86% 29.96 in 6.0 mi South 17.3 mph 25.3 mph N/A   Overcast
9:15 AM 28.4 °F 17.5 °F 24.8 °F 86% 29.96 in 5.0 mi South 13.8 mph 20.7 mph N/A   Overcast
9:35 AM 30.2 °F 17.8 °F 24.8 °F 80% 29.95 in 5.0 mi South 19.6 mph 25.3 mph N/A   Overcast
9:55 AM 30.2 °F 18.5 °F 26.6 °F 86% 29.96 in 5.0 mi South 17.3 mph 24.2 mph N/A   Overcast
10:15 AM 30.2 °F 18.1 °F 26.6 °F 86% 29.96 in 4.0 mi SSW 18.4 mph 21.9 mph N/A   Overcast
10:35 AM 30.2 °F 19.3 °F 26.6 °F 86% 29.95 in 4.0 mi South 15.0 mph - N/A   Overcast
10:55 AM 30.2 °F 18.9 °F 26.6 °F 86% 29.95 in 4.0 mi South 16.1 mph 21.9 mph N/A   Overcast
11:15 AM 32.0 °F 23.0 °F 28.4 °F 87% 29.95 in 4.0 mi South 11.5 mph - N/A   Overcast
11:35 AM 32.0 °F 22.5 °F 28.4 °F 87% 29.95 in 4.0 mi South 12.7 mph - N/A   Overcast
11:55 AM 32.0 °F 22.1 °F 28.4 °F 87% 29.94 in 3.0 mi South 13.8 mph - N/A   Overcast
12:15 PM 32.0 °F 23.6 °F 28.4 °F 87% 29.93 in 3.0 mi South 10.4 mph - N/A   Overcast
12:35 PM 33.8 °F 24.8 °F 28.4 °F 81% 29.92 in 3.0 mi South 12.7 mph - N/A   Overcast
12:55 PM 33.8 °F 25.3 °F 28.4 °F 81% 29.91 in 4.0 mi South 11.5 mph - N/A   Overcast
1:15 PM 33.8 °F 25.8 °F 28.4 °F 81% 29.90 in 4.0 mi SSE 10.4 mph - N/A   Overcast
1:35 PM 33.8 °F 25.8 °F 28.4 °F 81% 29.89 in 4.0 mi SSE 10.4 mph - N/A   Overcast
1:55 PM 33.8 °F 26.4 °F 28.4 °F 81% 29.88 in 4.0 mi SE 9.2 mph - N/A   Overcast
2:15 PM 33.8 °F 25.8 °F 28.4 °F 81% 29.87 in 4.0 mi SE 10.4 mph - N/A   Overcast
2:35 PM 33.8 °F 26.4 °F 28.4 °F 81% 29.86 in 4.0 mi SE 9.2 mph - N/A   Overcast
2:55 PM 33.8 °F 26.4 °F 28.4 °F 81% 29.85 in 5.0 mi ESE 9.2 mph - N/A   Overcast
3:15 PM 33.8 °F 26.4 °F 28.4 °F 81% 29.84 in 5.0 mi ESE 9.2 mph - N/A   Overcast
3:35 PM 33.8 °F 25.8 °F 28.4 °F 81% 29.84 in 5.0 mi ESE 10.4 mph - N/A   Overcast
3:55 PM 33.8 °F 25.3 °F 28.4 °F 81% 29.83 in 5.0 mi ESE 11.5 mph - N/A   Overcast
4:15 PM 33.8 °F 26.4 °F 28.4 °F 81% 29.83 in 5.0 mi East 9.2 mph - N/A   Overcast
4:35 PM 33.8 °F 25.3 °F 28.4 °F 81% 29.83 in 5.0 mi East 11.5 mph - N/A   Overcast
4:55 PM 33.8 °F 25.3 °F 28.4 °F 81% 29.82 in 5.0 mi East 11.5 mph - N/A   Overcast
5:15 PM 33.8 °F 25.3 °F 28.4 °F 81% 29.82 in 5.0 mi East 11.5 mph - N/A   Overcast
5:35 PM 33.8 °F 25.3 °F 28.4 °F 81% 29.81 in 5.0 mi East 11.5 mph 16.1 mph N/A   Overcast
5:55 PM 33.8 °F 25.8 °F 28.4 °F 81% 29.81 in 5.0 mi East 10.4 mph - N/A   Overcast
6:15 PM 33.8 °F 25.8 °F 28.4 °F 81% 29.81 in 6.0 mi East 10.4 mph - N/A   Overcast
6:35 PM 33.8 °F 25.3 °F 28.4 °F 81% 29.82 in 5.0 mi East 11.5 mph - N/A   Overcast
6:55 PM 33.8 °F 23.5 °F 28.4 °F 81% 29.81 in 7.0 mi ESE 16.1 mph - N/A   Overcast
7:35 PM 33.8 °F 22.8 °F 28.4 °F 81% 29.81 in 7.0 mi SE 18.4 mph 21.9 mph N/A   Overcast
7:55 PM 33.8 °F 23.5 °F 28.4 °F 81% 29.82 in 7.0 mi SE 16.1 mph - N/A   Overcast
8:15 PM 33.8 °F 23.5 °F 28.4 °F 81% 29.81 in 7.0 mi SE 16.1 mph - N/A   Overcast
8:35 PM 33.8 °F 23.9 °F 28.4 °F 81% 29.81 in 7.0 mi SE 15.0 mph - N/A   Overcast
8:55 PM 33.8 °F 23.9 °F 28.4 °F 81% 29.80 in 7.0 mi SSE 15.0 mph - N/A   Overcast
9:15 PM 33.8 °F 24.8 °F 28.4 °F 81% 29.81 in 7.0 mi SE 12.7 mph - N/A   Overcast
9:35 PM 33.8 °F 24.3 °F 28.4 °F 81% 29.80 in 6.0 mi SE 13.8 mph - N/A   Overcast
9:55 PM 33.8 °F 23.2 °F 28.4 °F 81% 29.80 in 6.0 mi SE 17.3 mph - N/A   Overcast
10:15 PM 33.8 °F 23.5 °F 28.4 °F 81% 29.79 in 5.0 mi SE 16.1 mph - N/A   Overcast
10:35 PM 33.8 °F 23.2 °F 28.4 °F 81% 29.78 in 5.0 mi SE 17.3 mph 20.7 mph N/A   Overcast
10:55 PM 33.8 °F 23.2 °F 28.4 °F 81% 29.77 in 5.0 mi SE 17.3 mph - N/A   Mostly Cloudy
11:15 PM 32.0 °F 20.8 °F 26.6 °F 80% 29.76 in 5.0 mi SE 17.3 mph - N/A   Mostly Cloudy
11:35 PM 32.0 °F 20.8 °F 26.6 °F 80% 29.75 in 5.0 mi SE 17.3 mph - N/A   Mostly Cloudy
11:55 PM 32.0 °F 20.8 °F 26.6 °F 80% 29.74 in 5.0 mi SE 17.3 mph - N/A   Overcast